createdAt,value
2023-03-08T00:00:33.048Z,985.99
2023-03-08T00:01:33.052Z,985.97
2023-03-08T00:02:33.027Z,985.94
2023-03-08T00:03:33.072Z,986.03
2023-03-08T00:04:33.088Z,985.97
2023-03-08T00:05:32.988Z,986.04
2023-03-08T00:06:32.980Z,986.03
2023-03-08T00:07:33.001Z,985.99
2023-03-08T00:08:32.977Z,986.00
2023-03-08T00:09:32.972Z,985.99
2023-03-08T00:10:32.967Z,986.03
2023-03-08T00:11:32.935Z,986.01
2023-03-08T00:12:32.949Z,986.01
2023-03-08T00:13:32.907Z,986.07
2023-03-08T00:14:32.954Z,986.01
2023-03-08T00:15:32.885Z,985.99
2023-03-08T00:16:32.884Z,985.99
2023-03-08T00:17:32.881Z,985.96
2023-03-08T00:18:32.880Z,986.00
2023-03-08T00:19:32.865Z,986.02
2023-03-08T00:20:32.832Z,986.03
2023-03-08T00:21:32.833Z,986.02
2023-03-08T00:22:32.827Z,986.03
2023-03-08T00:23:32.801Z,986.01
2023-03-08T00:24:32.817Z,985.98
2023-03-08T00:25:32.778Z,985.97
2023-03-08T00:26:32.778Z,986.01
2023-03-08T00:27:32.776Z,985.94
2023-03-08T00:28:32.756Z,985.94
2023-03-08T00:29:32.737Z,985.94
2023-03-08T00:30:32.769Z,985.93
2023-03-08T00:31:32.765Z,985.92
2023-03-08T00:32:32.744Z,985.96
2023-03-08T00:33:32.690Z,985.91
2023-03-08T00:34:32.708Z,985.91
2023-03-08T00:35:32.728Z,985.92
2023-03-08T00:36:32.688Z,985.92
2023-03-08T00:37:32.661Z,985.91
2023-03-08T00:38:32.645Z,985.91
2023-03-08T00:39:32.628Z,985.87
2023-03-08T00:40:32.627Z,985.86
2023-03-08T00:41:32.631Z,985.88
2023-03-08T00:42:32.648Z,985.80
2023-03-08T00:43:32.590Z,985.85
2023-03-08T00:44:32.600Z,985.80
2023-03-08T00:45:32.572Z,985.78
2023-03-08T00:46:32.628Z,985.83
2023-03-08T00:47:32.551Z,985.79
2023-03-08T00:48:32.592Z,985.76
2023-03-08T00:49:32.540Z,985.79
2023-03-08T00:50:32.517Z,985.84
2023-03-08T00:51:32.536Z,985.82
2023-03-08T00:52:32.494Z,985.79
2023-03-08T00:53:32.492Z,985.80
2023-03-08T00:54:32.498Z,985.78
2023-03-08T00:55:32.464Z,985.81
2023-03-08T00:56:32.465Z,985.77
2023-03-08T00:57:32.453Z,985.74
2023-03-08T00:58:32.446Z,985.78
2023-03-08T00:59:32.424Z,985.76
2023-03-08T01:00:32.450Z,985.79
2023-03-08T01:01:32.413Z,985.84
2023-03-08T01:02:32.384Z,985.79
2023-03-08T01:03:32.371Z,985.78
2023-03-08T01:04:32.379Z,985.78
2023-03-08T01:05:32.351Z,985.75
2023-03-08T01:06:32.387Z,985.80
2023-03-08T01:07:32.350Z,985.77
2023-03-08T01:08:32.337Z,985.75
2023-03-08T01:09:32.310Z,985.69
2023-03-08T01:10:32.313Z,985.63
2023-03-08T01:11:32.288Z,985.58
2023-03-08T01:12:32.308Z,985.55
2023-03-08T01:13:32.265Z,985.55
2023-03-08T01:14:32.268Z,985.52
2023-03-08T01:15:32.268Z,985.53
2023-03-08T01:16:32.239Z,985.51
2023-03-08T01:17:32.217Z,985.51
2023-03-08T01:18:32.250Z,985.50
2023-03-08T01:19:32.198Z,985.49
2023-03-08T01:20:32.188Z,985.52
2023-03-08T01:21:32.208Z,985.48
2023-03-08T01:22:32.174Z,985.46
2023-03-08T01:23:32.231Z,985.42
2023-03-08T01:24:32.200Z,985.41
2023-03-08T01:25:32.133Z,985.45
2023-03-08T01:26:32.141Z,985.45
2023-03-08T01:27:32.135Z,985.47
2023-03-08T01:28:32.111Z,985.40
2023-03-08T01:29:32.101Z,985.45
2023-03-08T01:30:32.110Z,985.37
2023-03-08T01:31:32.084Z,985.36
2023-03-08T01:32:32.110Z,985.31
2023-03-08T01:33:32.059Z,985.26
2023-03-08T01:34:32.034Z,985.30
2023-03-08T01:35:32.053Z,985.26
2023-03-08T01:36:32.071Z,985.24
2023-03-08T01:37:32.002Z,985.24
2023-03-08T01:38:31.994Z,985.20
2023-03-08T01:39:32.018Z,985.17
2023-03-08T01:40:31.968Z,985.22
2023-03-08T01:41:31.976Z,985.19
2023-03-08T01:42:31.988Z,985.20
2023-03-08T01:43:31.944Z,985.24
2023-03-08T01:44:31.932Z,985.21
2023-03-08T01:45:31.934Z,985.19
2023-03-08T01:46:31.915Z,985.16
2023-03-08T01:47:31.894Z,985.20
2023-03-08T01:48:31.935Z,985.17
2023-03-08T01:49:31.874Z,985.16
2023-03-08T01:50:31.863Z,985.10
2023-03-08T01:51:31.849Z,985.10
2023-03-08T01:52:31.840Z,985.08
2023-03-08T01:53:31.851Z,985.02
2023-03-08T01:54:31.862Z,985.05
2023-03-08T01:55:31.830Z,985.00
2023-03-08T01:56:31.805Z,984.98
2023-03-08T01:57:31.802Z,984.86
2023-03-08T01:58:31.773Z,984.85
2023-03-08T01:59:31.776Z,984.84
2023-03-08T02:00:31.793Z,984.88
2023-03-08T02:01:31.752Z,984.87
2023-03-08T02:02:31.732Z,984.82
2023-03-08T02:03:31.722Z,984.90
2023-03-08T02:04:31.744Z,984.86
2023-03-08T02:05:31.694Z,984.81
2023-03-08T02:06:31.739Z,984.81
2023-03-08T02:07:31.677Z,984.80
2023-03-08T02:08:31.665Z,984.82
2023-03-08T02:09:31.647Z,984.83
2023-03-08T02:10:31.667Z,984.78
2023-03-08T02:11:31.660Z,984.74
2023-03-08T02:12:31.667Z,984.76
2023-03-08T02:13:31.609Z,984.79
2023-03-08T02:14:31.621Z,984.73
2023-03-08T02:15:31.591Z,984.79
2023-03-08T02:16:31.583Z,984.71
2023-03-08T02:17:31.572Z,984.69
2023-03-08T02:18:31.595Z,984.68
2023-03-08T02:19:31.559Z,984.67
2023-03-08T02:20:31.564Z,984.66
2023-03-08T02:21:31.538Z,984.69
2023-03-08T02:22:31.531Z,984.65
2023-03-08T02:23:31.518Z,984.67
2023-03-08T02:24:31.542Z,984.69
2023-03-08T02:25:31.488Z,984.65
2023-03-08T02:26:31.473Z,984.66
2023-03-08T02:27:31.487Z,984.68
2023-03-08T02:28:31.470Z,984.66
2023-03-08T02:29:31.447Z,984.65
2023-03-08T02:30:31.468Z,984.62
2023-03-08T02:31:31.419Z,984.62
2023-03-08T02:32:31.553Z,984.61
2023-03-08T02:33:31.402Z,984.61
2023-03-08T02:34:31.390Z,984.60
2023-03-08T02:35:31.375Z,984.58
2023-03-08T02:36:31.388Z,984.55
2023-03-08T02:37:31.375Z,984.60
2023-03-08T02:38:31.341Z,984.58
2023-03-08T02:39:31.339Z,984.53
2023-03-08T02:40:31.341Z,984.53
2023-03-08T02:41:31.316Z,984.54
2023-03-08T02:42:31.338Z,984.50
2023-03-08T02:43:31.334Z,984.50
2023-03-08T02:44:31.287Z,984.51
2023-03-08T02:45:31.271Z,984.49
2023-03-08T02:46:31.255Z,984.41
2023-03-08T02:47:31.246Z,984.41
2023-03-08T02:48:31.280Z,984.33
2023-03-08T02:49:31.241Z,984.28
2023-03-08T02:50:31.205Z,984.26
2023-03-08T02:51:31.219Z,984.27
2023-03-08T02:52:31.210Z,984.26
2023-03-08T02:53:31.184Z,984.25
2023-03-08T02:54:31.188Z,984.26
2023-03-08T02:55:31.170Z,984.20
2023-03-08T02:56:31.159Z,984.21
2023-03-08T02:57:31.149Z,984.18
2023-03-08T02:58:31.133Z,984.15
2023-03-08T02:59:31.131Z,984.10
2023-03-08T03:00:31.131Z,984.10
2023-03-08T03:01:31.114Z,984.12
2023-03-08T03:02:31.099Z,984.12
2023-03-08T03:03:31.090Z,984.19
2023-03-08T03:04:31.074Z,984.17
2023-03-08T03:05:31.047Z,984.15
2023-03-08T03:06:31.116Z,984.15
2023-03-08T03:07:31.048Z,984.18
2023-03-08T03:08:31.041Z,984.14
2023-03-08T03:09:31.007Z,984.14
2023-03-08T03:10:31.008Z,984.06
2023-03-08T03:11:30.984Z,984.06
2023-03-08T03:12:30.992Z,984.06
2023-03-08T03:13:30.961Z,984.08
2023-03-08T03:14:30.950Z,984.06
2023-03-08T03:15:31.011Z,984.02
2023-03-08T03:16:30.935Z,984.01
2023-03-08T03:17:30.958Z,983.99
2023-03-08T03:18:30.919Z,983.99
2023-03-08T03:19:30.890Z,984.01
2023-03-08T03:20:30.875Z,984.01
2023-03-08T03:21:30.864Z,983.96
2023-03-08T03:22:30.855Z,983.97
2023-03-08T03:23:30.861Z,983.95
2023-03-08T03:24:30.882Z,983.90
2023-03-08T03:25:30.822Z,983.88
2023-03-08T03:26:30.813Z,983.84
2023-03-08T03:27:30.804Z,983.81
2023-03-08T03:28:30.806Z,983.75
2023-03-08T03:29:30.802Z,983.71
2023-03-08T03:30:30.791Z,983.69
2023-03-08T03:31:30.809Z,983.63
2023-03-08T03:32:30.784Z,983.64
2023-03-08T03:33:30.739Z,983.64
2023-03-08T03:34:30.728Z,983.70
2023-03-08T03:35:30.750Z,983.72
2023-03-08T03:36:30.735Z,983.67
2023-03-08T03:37:30.689Z,983.66
2023-03-08T03:38:30.679Z,983.66
2023-03-08T03:39:30.685Z,983.65
2023-03-08T03:40:30.671Z,983.62
2023-03-08T03:41:30.647Z,983.62
2023-03-08T03:42:30.686Z,983.61
2023-03-08T03:43:30.625Z,983.57
2023-03-08T03:44:30.624Z,983.60
2023-03-08T03:45:30.603Z,983.61
2023-03-08T03:46:30.606Z,983.61
2023-03-08T03:47:30.630Z,983.61
2023-03-08T03:48:30.601Z,983.62
2023-03-08T03:49:30.579Z,983.62
2023-03-08T03:50:30.554Z,983.65
2023-03-08T03:51:30.556Z,983.59
2023-03-08T03:52:30.532Z,983.57
2023-03-08T03:53:30.520Z,983.60
2023-03-08T03:54:30.548Z,983.54
2023-03-08T03:55:30.502Z,983.52
2023-03-08T03:56:30.508Z,983.51
2023-03-08T03:57:30.481Z,983.59
2023-03-08T03:58:30.462Z,983.52
2023-03-08T03:59:30.487Z,983.53
2023-03-08T04:00:30.494Z,983.54
2023-03-08T04:01:30.434Z,983.53
2023-03-08T04:02:30.463Z,983.53
2023-03-08T04:03:30.461Z,983.55
2023-03-08T04:04:30.402Z,983.54
2023-03-08T04:05:30.425Z,983.53
2023-03-08T04:06:30.422Z,983.53
2023-03-08T04:07:30.375Z,983.51
2023-03-08T04:08:30.357Z,983.50
2023-03-08T04:09:30.363Z,983.47
2023-03-08T04:10:30.354Z,983.48
2023-03-08T04:11:30.364Z,983.44
2023-03-08T04:12:30.319Z,983.50
2023-03-08T04:13:30.331Z,983.50
2023-03-08T04:14:30.295Z,983.52
2023-03-08T04:15:30.291Z,983.45
2023-03-08T04:16:30.355Z,983.44
2023-03-08T04:17:30.294Z,983.43
2023-03-08T04:18:30.271Z,983.41
2023-03-08T04:19:30.266Z,983.39
2023-03-08T04:20:30.233Z,983.35
2023-03-08T04:21:30.237Z,983.31
2023-03-08T04:22:30.235Z,983.30
2023-03-08T04:23:30.226Z,983.24
2023-03-08T04:24:30.178Z,983.25
2023-03-08T04:25:30.176Z,983.23
2023-03-08T04:26:30.167Z,983.24
2023-03-08T04:27:30.151Z,983.20
2023-03-08T04:28:30.161Z,983.18
2023-03-08T04:29:30.171Z,983.19
2023-03-08T04:30:30.148Z,983.14
2023-03-08T04:31:30.220Z,983.13
2023-03-08T04:32:30.121Z,983.15
2023-03-08T04:33:30.091Z,983.13
2023-03-08T04:34:30.108Z,983.11
2023-03-08T04:35:30.220Z,983.10
2023-03-08T04:36:30.055Z,983.12
2023-03-08T04:37:30.048Z,983.09
2023-03-08T04:38:30.031Z,983.05
2023-03-08T04:39:30.031Z,983.06
2023-03-08T04:40:30.044Z,982.99
2023-03-08T04:41:30.039Z,982.99
2023-03-08T04:42:29.991Z,983.03
2023-03-08T04:43:29.975Z,982.95
2023-03-08T04:44:29.976Z,982.91
2023-03-08T04:45:29.963Z,982.94
2023-03-08T04:46:29.990Z,982.91
2023-03-08T04:47:29.976Z,982.89
2023-03-08T04:48:29.924Z,982.82
2023-03-08T04:49:29.917Z,982.81
2023-03-08T04:50:29.924Z,982.75
2023-03-08T04:51:29.919Z,982.77
2023-03-08T04:52:29.881Z,982.73
2023-03-08T04:53:29.900Z,982.69
2023-03-08T04:54:29.865Z,982.72
2023-03-08T04:55:29.864Z,982.60
2023-03-08T04:56:29.851Z,982.60
2023-03-08T04:57:29.826Z,982.57
2023-03-08T04:58:29.822Z,982.56
2023-03-08T04:59:29.854Z,982.54
2023-03-08T05:00:29.805Z,982.51
2023-03-08T05:01:29.785Z,982.46
2023-03-08T05:02:31.062Z,982.44
2023-03-08T05:03:29.765Z,982.43
2023-03-08T05:04:29.778Z,982.40
2023-03-08T05:05:29.765Z,982.39
2023-03-08T05:06:29.729Z,982.35
2023-03-08T05:07:29.744Z,982.31
2023-03-08T05:08:29.705Z,982.27
2023-03-08T05:09:29.700Z,982.28
2023-03-08T05:10:29.711Z,982.28
2023-03-08T05:11:29.732Z,982.26
2023-03-08T05:12:29.663Z,982.25
2023-03-08T05:13:29.663Z,982.27
2023-03-08T05:14:29.654Z,982.24
2023-03-08T05:15:29.634Z,982.23
2023-03-08T05:16:29.709Z,982.19
2023-03-08T05:17:29.642Z,982.19
2023-03-08T05:18:29.604Z,982.13
2023-03-08T05:19:29.599Z,982.15
2023-03-08T05:20:29.576Z,982.14
2023-03-08T05:21:29.600Z,982.06
2023-03-08T05:22:29.577Z,982.06
2023-03-08T05:23:29.580Z,982.05
2023-03-08T05:24:29.580Z,982.03
2023-03-08T05:25:29.529Z,981.97
2023-03-08T05:26:29.512Z,981.94
2023-03-08T05:27:29.522Z,981.89
2023-03-08T05:28:29.498Z,981.89
2023-03-08T05:29:29.487Z,981.85
2023-03-08T05:30:29.490Z,981.83
2023-03-08T05:31:29.562Z,981.76
2023-03-08T05:32:29.515Z,981.78
2023-03-08T05:33:29.441Z,981.76
2023-03-08T05:34:29.429Z,981.68
2023-03-08T05:35:29.422Z,981.66
2023-03-08T05:36:29.460Z,981.61
2023-03-08T05:37:29.392Z,981.57
2023-03-08T05:38:29.437Z,981.55
2023-03-08T05:39:29.396Z,981.56
2023-03-08T05:40:29.380Z,981.56
2023-03-08T05:41:29.387Z,981.54
2023-03-08T05:42:29.356Z,981.56
2023-03-08T05:43:29.333Z,981.53
2023-03-08T05:44:29.333Z,981.50
2023-03-08T05:45:29.492Z,981.50
2023-03-08T05:46:31.517Z,981.47
2023-03-08T05:47:29.313Z,981.51
2023-03-08T05:48:29.289Z,981.45
2023-03-08T05:49:29.288Z,981.46
2023-03-08T05:50:29.255Z,981.43
2023-03-08T05:51:29.248Z,981.41
2023-03-08T05:52:29.262Z,981.37
2023-03-08T05:53:29.225Z,981.38
2023-03-08T05:54:29.237Z,981.33
2023-03-08T05:55:29.228Z,981.26
2023-03-08T05:56:29.193Z,981.29
2023-03-08T05:57:29.183Z,981.22
2023-03-08T05:58:29.183Z,981.25
2023-03-08T05:59:29.162Z,981.13
2023-03-08T06:00:29.163Z,981.21
2023-03-08T06:01:29.158Z,981.16
2023-03-08T06:02:29.157Z,981.15
2023-03-08T06:03:29.170Z,981.09
2023-03-08T06:04:29.110Z,981.11
2023-03-08T06:05:29.099Z,981.03
2023-03-08T06:06:29.104Z,981.03
2023-03-08T06:07:29.071Z,981.02
2023-03-08T06:08:29.062Z,980.99
2023-03-08T06:09:29.048Z,981.03
2023-03-08T06:10:29.056Z,981.06
2023-03-08T06:11:29.067Z,981.03
2023-03-08T06:12:29.015Z,981.01
2023-03-08T06:13:29.008Z,981.03
2023-03-08T06:14:29.052Z,980.98
2023-03-08T06:15:28.990Z,980.91
2023-03-08T06:16:29.021Z,980.89
2023-03-08T06:17:28.966Z,980.91
2023-03-08T06:18:28.953Z,980.87
2023-03-08T06:19:28.952Z,980.82
2023-03-08T06:20:28.960Z,980.77
2023-03-08T06:21:28.925Z,980.71
2023-03-08T06:22:28.923Z,980.68
2023-03-08T06:23:28.898Z,980.66
2023-03-08T06:24:28.888Z,980.67
2023-03-08T06:25:28.904Z,980.61
2023-03-08T06:26:28.872Z,980.60
2023-03-08T06:27:28.992Z,980.55
2023-03-08T06:28:28.850Z,980.47
2023-03-08T06:29:28.851Z,980.42
2023-03-08T06:30:28.841Z,980.37
2023-03-08T06:31:28.844Z,980.40
2023-03-08T06:32:28.860Z,980.36
2023-03-08T06:33:28.808Z,980.29
2023-03-08T06:34:28.785Z,980.31
2023-03-08T06:35:28.808Z,980.26
2023-03-08T06:36:28.766Z,980.22
2023-03-08T06:37:28.779Z,980.26
2023-03-08T06:38:30.165Z,980.26
2023-03-08T06:39:28.738Z,980.27
2023-03-08T06:40:28.731Z,980.23
2023-03-08T06:41:28.728Z,980.20
2023-03-08T06:42:40.660Z,980.19
2023-03-08T06:43:29.715Z,980.22
2023-03-08T06:44:28.701Z,980.21
2023-03-08T06:45:28.674Z,980.13
2023-03-08T06:46:28.762Z,980.03
2023-03-08T06:47:28.656Z,979.99
2023-03-08T06:48:28.644Z,979.97
2023-03-08T06:49:28.649Z,979.90
2023-03-08T06:50:28.618Z,979.91
2023-03-08T06:51:28.709Z,979.90
2023-03-08T06:52:28.608Z,980.00
2023-03-08T06:53:28.580Z,980.02
2023-03-08T06:54:28.624Z,979.98
2023-03-08T06:55:28.562Z,979.91
2023-03-08T06:56:28.564Z,979.89
2023-03-08T06:57:28.560Z,979.80
2023-03-08T06:58:28.542Z,979.77
2023-03-08T06:59:28.605Z,979.81
2023-03-08T07:00:28.518Z,979.79
2023-03-08T07:01:28.540Z,979.79
2023-03-08T07:02:28.532Z,979.74
2023-03-08T07:03:28.498Z,979.73
2023-03-08T07:04:28.501Z,979.67
2023-03-08T07:05:28.502Z,979.66
2023-03-08T07:06:28.449Z,979.56
2023-03-08T07:07:28.475Z,979.57
2023-03-08T07:08:28.477Z,979.46
2023-03-08T07:09:28.426Z,979.48
2023-03-08T07:10:28.427Z,979.47
2023-03-08T07:11:28.513Z,979.40
2023-03-08T07:12:28.386Z,979.41
2023-03-08T07:13:28.371Z,979.40
2023-03-08T07:14:28.384Z,979.35
2023-03-08T07:15:28.527Z,979.35
2023-03-08T07:16:28.340Z,979.33
2023-03-08T07:17:28.380Z,979.33
2023-03-08T07:18:28.320Z,979.27
2023-03-08T07:19:28.330Z,979.30
2023-03-08T07:20:28.303Z,979.30
2023-03-08T07:21:28.276Z,979.32
2023-03-08T07:22:28.269Z,979.31
2023-03-08T07:23:28.274Z,979.33
2023-03-08T07:24:28.253Z,979.31
2023-03-08T07:25:28.252Z,979.27
2023-03-08T07:26:28.239Z,979.23
2023-03-08T07:27:28.208Z,979.27
2023-03-08T07:28:28.217Z,979.26
2023-03-08T07:29:28.198Z,979.25
2023-03-08T07:30:28.327Z,979.19
2023-03-08T07:31:28.201Z,979.19
2023-03-08T07:32:28.256Z,979.15
2023-03-08T07:33:28.145Z,979.13
2023-03-08T07:34:28.147Z,979.11
2023-03-08T07:35:28.157Z,979.13
2023-03-08T07:36:28.160Z,979.13
2023-03-08T07:37:28.120Z,979.17
2023-03-08T07:38:28.113Z,979.08
2023-03-08T07:39:28.080Z,979.06
2023-03-08T07:40:28.207Z,979.12
2023-03-08T07:41:28.071Z,979.08
2023-03-08T07:42:28.109Z,979.04
2023-03-08T07:43:28.063Z,979.07
2023-03-08T07:44:28.032Z,979.05
2023-03-08T07:45:28.017Z,979.08
2023-03-08T07:46:28.049Z,979.06
2023-03-08T07:47:28.017Z,979.11
2023-03-08T07:48:28.001Z,979.11
2023-03-08T07:49:28.018Z,979.03
2023-03-08T07:50:28.017Z,979.09
2023-03-08T07:51:27.951Z,979.05
2023-03-08T07:52:27.945Z,979.06
2023-03-08T07:53:27.927Z,979.04
2023-03-08T07:54:27.930Z,979.03
2023-03-08T07:55:27.945Z,979.01
2023-03-08T07:56:27.916Z,979.02
2023-03-08T07:57:27.930Z,979.04
2023-03-08T07:58:27.885Z,979.04
2023-03-08T07:59:27.878Z,979.02
2023-03-08T08:00:27.906Z,979.03
2023-03-08T08:01:27.909Z,979.01
2023-03-08T08:02:27.851Z,978.99
2023-03-08T08:03:27.987Z,978.94
2023-03-08T08:04:27.818Z,978.91
2023-03-08T08:05:27.851Z,978.95
2023-03-08T08:06:27.832Z,978.91
2023-03-08T08:07:27.784Z,978.93
2023-03-08T08:08:27.786Z,978.91
2023-03-08T08:09:27.775Z,978.93
2023-03-08T08:10:27.786Z,978.92
2023-03-08T08:11:27.739Z,978.90
2023-03-08T08:12:27.734Z,978.90
2023-03-08T08:13:27.719Z,978.91
2023-03-08T08:14:27.706Z,978.83
2023-03-08T08:15:27.688Z,978.83
2023-03-08T08:16:27.799Z,978.82
2023-03-08T08:17:27.670Z,978.80
2023-03-08T08:18:27.662Z,978.77
2023-03-08T08:19:27.738Z,978.79
2023-03-08T08:20:27.645Z,978.71
2023-03-08T08:21:27.698Z,978.66
2023-03-08T08:22:27.629Z,978.62
2023-03-08T08:23:27.617Z,978.68
2023-03-08T08:24:27.594Z,978.63
2023-03-08T08:25:27.582Z,978.62
2023-03-08T08:26:27.937Z,978.62
2023-03-08T08:27:27.574Z,978.61
2023-03-08T08:28:27.574Z,978.61
2023-03-08T08:29:27.564Z,978.61
2023-03-08T08:30:27.572Z,978.58
2023-03-08T08:31:27.551Z,978.54
2023-03-08T08:32:27.585Z,978.56
2023-03-08T08:33:27.515Z,978.48
2023-03-08T08:34:27.485Z,978.45
2023-03-08T08:35:42.171Z,978.47
2023-03-08T08:36:28.496Z,978.46
2023-03-08T08:37:27.451Z,978.44
2023-03-08T08:38:27.455Z,978.40
2023-03-08T08:39:27.428Z,978.43
2023-03-08T08:40:28.457Z,978.39
2023-03-08T08:41:27.418Z,978.38
2023-03-08T08:42:27.410Z,978.41
2023-03-08T08:43:27.394Z,978.40
2023-03-08T08:44:27.381Z,978.33
2023-03-08T08:45:27.419Z,978.34
2023-03-08T08:46:27.382Z,978.38
2023-03-08T08:47:27.351Z,978.37
2023-03-08T08:48:27.355Z,978.37
2023-03-08T08:49:27.346Z,978.35
2023-03-08T08:50:27.317Z,978.35
2023-03-08T08:51:27.328Z,978.32
2023-03-08T08:52:27.298Z,978.35
2023-03-08T08:53:27.308Z,978.32
2023-03-08T08:54:27.284Z,978.33
2023-03-08T08:55:27.332Z,978.30
2023-03-08T08:56:28.531Z,978.28
2023-03-08T08:57:27.273Z,978.30
2023-03-08T08:58:27.264Z,978.31
2023-03-08T08:59:27.241Z,978.25
2023-03-08T09:00:27.243Z,978.33
2023-03-08T09:01:27.263Z,978.31
2023-03-08T09:02:27.218Z,978.32
2023-03-08T09:03:27.237Z,978.24
2023-03-08T09:04:27.306Z,978.25
2023-03-08T09:05:27.236Z,978.23
2023-03-08T09:06:27.148Z,978.19
2023-03-08T09:07:27.249Z,978.14
2023-03-08T09:08:27.147Z,978.13
2023-03-08T09:09:27.150Z,978.11
2023-03-08T09:10:27.140Z,978.10
2023-03-08T09:11:27.121Z,978.10
2023-03-08T09:12:27.126Z,978.09
2023-03-08T09:13:27.128Z,978.19
2023-03-08T09:14:27.068Z,978.08
2023-03-08T09:17:05.944Z,978.14
2023-03-08T09:18:05.843Z,978.11
2023-03-08T09:19:05.790Z,978.14
2023-03-08T09:20:05.772Z,978.09
2023-03-08T09:21:05.747Z,978.07
2023-03-08T09:22:05.901Z,978.03
2023-03-08T09:23:05.828Z,978.05
2023-03-08T09:24:19.268Z,978.01
2023-03-08T09:25:14.804Z,978.00
2023-03-08T09:26:13.765Z,977.96
2023-03-08T09:27:20.622Z,977.94
2023-03-08T09:28:05.713Z,977.90
2023-03-08T09:29:05.786Z,977.89
2023-03-08T09:30:17.414Z,977.89
2023-03-08T09:32:40.541Z,977.87
2023-03-08T09:35:03.487Z,977.85
2023-03-08T09:36:10.903Z,977.90
2023-03-08T09:37:04.255Z,977.87
2023-03-08T09:38:02.353Z,977.87
2023-03-08T09:39:02.275Z,977.87
2023-03-08T09:40:02.331Z,977.83
2023-03-08T09:41:02.239Z,977.86
2023-03-08T09:42:10.302Z,977.91
2023-03-08T09:43:02.476Z,977.85
2023-03-08T09:44:02.587Z,977.89
2023-03-08T09:45:02.393Z,977.85
2023-03-08T09:46:02.376Z,977.86
2023-03-08T09:47:02.173Z,977.80
2023-03-08T09:48:02.382Z,977.81
2023-03-08T09:49:02.180Z,977.80
2023-03-08T09:50:02.301Z,977.81
2023-03-08T09:51:02.143Z,977.80
2023-03-08T09:52:02.182Z,977.81
2023-03-08T09:53:02.117Z,977.81
2023-03-08T09:54:02.102Z,977.82
2023-03-08T09:55:02.228Z,977.83
2023-03-08T09:56:02.135Z,977.78
2023-03-08T09:57:02.053Z,977.73
2023-03-08T09:58:02.123Z,977.69
2023-03-08T09:59:02.061Z,977.75
2023-03-08T10:00:02.039Z,977.70
2023-03-08T10:01:02.187Z,977.69
2023-03-08T10:02:02.000Z,977.68
2023-03-08T10:03:02.126Z,977.66
2023-03-08T10:04:02.131Z,977.57
2023-03-08T10:05:12.839Z,977.63
2023-03-08T10:06:02.976Z,977.61
2023-03-08T10:07:02.036Z,977.57
2023-03-08T10:08:01.940Z,977.60
2023-03-08T10:09:01.926Z,977.60
2023-03-08T10:10:01.925Z,977.62
2023-03-08T10:11:01.973Z,977.60
2023-03-08T10:12:01.968Z,977.61
2023-03-08T10:13:01.888Z,977.59
2023-03-08T10:14:01.911Z,977.58
2023-03-08T10:15:01.860Z,977.57
2023-03-08T10:16:01.877Z,977.54
2023-03-08T10:17:01.967Z,977.52
2023-03-08T10:18:01.964Z,977.47
2023-03-08T10:19:10.029Z,977.47
2023-03-08T10:20:01.966Z,977.43
2023-03-08T10:21:01.809Z,977.43
2023-03-08T10:22:01.837Z,977.50
2023-03-08T10:23:01.779Z,977.46
2023-03-08T10:24:01.786Z,977.48
2023-03-08T10:25:01.773Z,977.49
2023-03-08T10:26:01.816Z,977.43
2023-03-08T10:27:03.861Z,977.50
2023-03-08T10:28:01.753Z,977.45
2023-03-08T10:29:01.714Z,977.51
2023-03-08T10:30:01.712Z,977.45
2023-03-08T10:31:01.749Z,977.48
2023-03-08T10:32:01.707Z,977.49
2023-03-08T10:33:01.762Z,977.45
2023-03-08T10:34:01.684Z,977.43
2023-03-08T10:35:01.691Z,977.38
2023-03-08T10:36:01.656Z,977.44
2023-03-08T10:37:01.789Z,977.43
2023-03-08T10:38:01.629Z,977.37
2023-03-08T10:39:03.944Z,977.37
2023-03-08T10:40:01.635Z,977.37
2023-03-08T10:41:01.737Z,977.37
2023-03-08T10:42:01.596Z,977.34
2023-03-08T10:43:01.576Z,977.38
2023-03-08T10:44:01.543Z,977.37
2023-03-08T10:45:01.590Z,977.38
2023-03-08T10:46:01.615Z,977.40
2023-03-08T10:47:01.582Z,977.46
2023-03-08T10:48:01.569Z,977.46
2023-03-08T10:49:01.608Z,977.45
2023-03-08T10:50:01.516Z,977.44
2023-03-08T10:51:01.513Z,977.43
2023-03-08T10:52:01.542Z,977.43
2023-03-08T10:53:01.485Z,977.39
2023-03-08T10:54:01.436Z,977.46
2023-03-08T10:55:01.444Z,977.36
2023-03-08T10:56:01.551Z,977.34
2023-03-08T10:57:01.473Z,977.39
2023-03-08T10:58:01.421Z,977.46
2023-03-08T10:59:01.440Z,977.43
2023-03-08T11:00:01.422Z,977.44
2023-03-08T11:01:01.369Z,977.41
2023-03-08T11:02:01.364Z,977.45
2023-03-08T11:03:01.397Z,977.42
2023-03-08T11:04:01.460Z,977.43
2023-03-08T11:05:01.432Z,977.43
2023-03-08T11:06:01.359Z,977.41
2023-03-08T11:07:01.493Z,977.40
2023-03-08T11:08:01.373Z,977.42
2023-03-08T11:09:01.310Z,977.44
2023-03-08T11:10:01.252Z,977.40
2023-03-08T11:11:01.265Z,977.38
2023-03-08T11:12:01.301Z,977.38
2023-03-08T11:13:01.239Z,977.34
2023-03-08T11:14:01.238Z,977.36
2023-03-08T11:15:01.289Z,977.36
2023-03-08T11:16:01.274Z,977.35
2023-03-08T11:17:01.220Z,977.36
2023-03-08T11:18:01.275Z,977.33
2023-03-08T11:19:01.251Z,977.30
2023-03-08T11:20:01.951Z,977.33
2023-03-08T11:21:01.166Z,977.29
2023-03-08T11:22:01.178Z,977.29
2023-03-08T11:23:01.206Z,977.24
2023-03-08T11:24:01.169Z,977.27
2023-03-08T11:25:01.793Z,977.22
2023-03-08T11:26:10.227Z,977.21
2023-03-08T11:27:11.313Z,977.21
2023-03-08T11:28:01.324Z,977.25
2023-03-08T11:29:01.290Z,977.21
2023-03-08T11:30:01.050Z,977.19
2023-03-08T11:31:01.191Z,977.20
2023-03-08T11:32:01.091Z,977.18
2023-03-08T11:33:01.361Z,977.19
2023-03-08T11:34:01.279Z,977.15
2023-03-08T11:35:09.030Z,977.18
2023-03-08T11:36:01.141Z,977.22
2023-03-08T11:37:01.898Z,977.10
2023-03-08T11:38:01.258Z,977.17
2023-03-08T11:39:01.002Z,977.17
2023-03-08T11:40:00.996Z,977.13
2023-03-08T11:41:00.941Z,977.10
2023-03-08T11:42:00.922Z,977.08
2023-03-08T11:43:01.077Z,977.13
2023-03-08T11:44:00.901Z,977.01
2023-03-08T11:45:01.780Z,976.97
2023-03-08T11:46:00.932Z,976.99
2023-03-08T11:47:01.029Z,977.02
2023-03-08T11:48:00.842Z,976.98
2023-03-08T11:49:00.866Z,977.00
2023-03-08T11:50:00.842Z,976.94
2023-03-08T11:51:00.945Z,976.93
2023-03-08T11:52:00.878Z,977.01
2023-03-08T11:53:00.899Z,977.00
2023-03-08T11:54:00.804Z,976.91
2023-03-08T11:55:00.926Z,976.96
2023-03-08T11:56:00.798Z,976.94
2023-03-08T11:57:00.771Z,976.91
2023-03-08T11:58:00.830Z,976.84
2023-03-08T11:59:00.790Z,976.89
2023-03-08T12:00:00.818Z,976.89
2023-03-08T12:01:00.817Z,976.85
2023-03-08T12:02:00.731Z,976.83
2023-03-08T12:03:00.698Z,976.85
2023-03-08T12:04:03.233Z,976.93
2023-03-08T12:06:28.277Z,976.84
2023-03-08T12:07:19.121Z,976.85
2023-03-08T12:08:17.975Z,976.82
2023-03-08T12:09:18.015Z,976.86
2023-03-08T12:10:17.971Z,976.80
2023-03-08T12:11:17.890Z,976.79
2023-03-08T12:12:17.906Z,976.78
2023-03-08T12:13:17.891Z,976.81
2023-03-08T12:14:17.886Z,976.72
2023-03-08T12:15:17.907Z,976.76
2023-03-08T12:16:17.942Z,976.68
2023-03-08T12:17:17.863Z,976.66
2023-03-08T12:18:17.850Z,976.64
2023-03-08T12:19:17.857Z,976.68
2023-03-08T12:20:17.777Z,976.68
2023-03-08T12:21:17.937Z,976.71
2023-03-08T12:22:17.854Z,976.66
2023-03-08T12:23:17.755Z,976.62
2023-03-08T12:24:17.843Z,976.59
2023-03-08T12:25:17.766Z,976.65
2023-03-08T12:26:17.884Z,976.63
2023-03-08T12:27:17.706Z,976.58
2023-03-08T12:28:17.756Z,976.59
2023-03-08T12:29:17.768Z,976.64
2023-03-08T12:30:17.692Z,976.64
2023-03-08T12:31:26.957Z,976.66
2023-03-08T12:32:18.937Z,976.70
2023-03-08T12:33:17.950Z,976.62
2023-03-08T12:34:17.715Z,976.64